Duckwater, Nevada Weather observations

Data are for 10 minute period ending at time listed.
 Day   Time   Solar   Ave.   Ave.  Ave.  Vector  Max.   Baro.   Total    
  of    of     Rad.   Air    Rel.  Wind   Wind   Wind  Press.  Precip.   
Year   Day            Temp.  Hum.  Speed  Dir.   Gust                    
2014   (PST)   w/m2    F      %     mph   deg.    mph    mb.     in.    
-----------------------------------------------------------------------
 351    0:00      0   28.3    85    2.6   340     5.5   999.0   0.00  
 351    0:10      0   28.1    85    4.3   353     6.4   999.0   0.00  
 351    0:20      0   27.9    86    5.6     0     8.1   999.0   0.00  
 351    0:30      0   28.1    86    5.2     0     7.9   999.0   0.00  
 351    0:40      0   28.1    86    4.6   356     7.2   999.0   0.00  
 351    0:50      0   27.9    86    4.1   351     6.4   999.0   0.00  
 351    1:00      0   27.7    86    3.1   348     5.3   999.0   0.00  
 351    1:10      0   27.5    86    2.2   324     4.9   999.0   0.00  
 351    1:20      0   27.3    87    1.1   329     5.2   999.0   0.00  
 351    1:30      0   27.5    87    3.2   325     6.2   999.0   0.00  
 351    1:40      0   27.8    86    4.8   322     8.8   999.0   0.00  
 351    1:50      0   28.1    85    3.4   334     6.5   999.0   0.00  
 351    2:00      0   28.5    83    5.5   348     9.1   999.0   0.00  
 351    2:10      0   28.7    83    2.6   353     5.0   999.0   0.00  
 351    2:20      0   28.7    84    4.3   355     6.6   999.0   0.00  
 351    2:30      0   29.1    82    4.1   344     7.6   999.0   0.00  
 351    2:40      0   29.1    83    2.8   342     5.6   999.0   0.00  
 351    2:50      0   29.5    82    2.7   350     4.2   999.0   0.00  
 351    3:00      0   29.7    82    2.5   324     4.1   999.0   0.00  
 351    3:10      0   29.7    81    2.8   302     4.3   999.0   0.00  
 351    3:20      0   29.1    84    2.5   337     3.7   999.0   0.00  
 351    3:30      0   28.9    85    2.1   334     6.0   999.0   0.00  
 351    3:40      0   28.8    85    2.6   342     4.8   999.0   0.00  
 351    3:50      0   29.0    84    3.1     5     5.6   999.0   0.00  
 351    4:00      0   29.0    85    2.8    44     5.7   999.0   0.00  
 351    4:10      0   29.0    85    2.7   299     5.0   999.0   0.00  
 351    4:20      0   28.9    86    2.5   333     4.2   999.0   0.00  
 351    4:30      0   29.0    85    3.2     9     5.4   999.0   0.00  
 351    4:40      0   29.1    85    2.3    20     3.7   999.0   0.00  
 351    4:50      0   29.3    86    2.4    19     3.4   999.0   0.00  
 351    5:00      0   29.6    86    1.5    12     2.8   999.0   0.00  
 351    5:10      0   29.5    86    1.3   340     2.9   999.0   0.00  
 351    5:20      0   29.2    86    0.7   285     1.8   999.0   0.00  
 351    5:30      0   28.4    89    0.7   285     2.8   999.0   0.00  
 351    5:40      0   28.3    90    1.0   261     2.3   999.0   0.00  
 351    5:50      0   28.1    90    0.9   140     2.1   999.0   0.00  
 351    6:00      0   27.9    90    1.2   139     2.9   999.0   0.00  
 351    6:10      0   28.1    91    0.4   139     1.3   999.0   0.00  
 351    6:20      0   28.2    90    0.9   139     2.0   999.0   0.00  
 351    6:30      0   28.5    90    0.6   139     1.5   999.0   0.00  
 351    6:40      0   28.8    90    0.1   139     1.1   999.0   0.00  
 351    6:50      0   28.8    89    0.1   139     0.9   999.0   0.00  
 351    7:00      1   28.8    89    0.3   139     1.5   999.0   0.00  
 351    7:10      5   28.9    89    0.0     0     0.0   999.0   0.00  
 351    7:20     11   28.7    89    0.5   233     2.9   999.0   0.00  
 351    7:30     20   28.5    90    0.2   239     1.2   999.0   0.00  
 351    7:40     26   28.7    91    0.3   239     0.9   999.0   0.00  
 351    7:50     24   29.1    91    1.1   239     2.3   999.0   0.00  
 351    8:00     32   29.6    90    1.4   220     2.2   999.0   0.00  
 351    8:10     47   30.1    88    1.5   107     2.9   999.0   0.00  
 351    8:20     64   30.9    85    1.1    52     2.3   999.0   0.00  
 351    8:30     66   31.8    82    0.3    53     1.0   999.0   0.00  
 351    8:40     72   31.9    82    1.5    55     2.2   999.0   0.00  
 351    8:50     87   31.9    83    0.2   172     1.8   999.0   0.00  
 351    9:00    100   32.8    80    0.0   191     0.4   999.0   0.00  

Return to Duckwater graphs page.


Western Regional Climate Center,wrcc@dri.edu